Weather at Baranof Warm Springs Float and Seaplane Base

Public forecast

Using degrees Fahrenheit for public forecast. Weather courtesy of forecast.io.

Closest aviation weather report (METAR) to Baranof Warm Springs Float and Seaplane Base

Closest report is Sitka Rocky Gutierrez Airport, 17.4 nm (32.3 km) W. Retrieved 2020/09/29 11:53 UTC (53 minutes ago):

PASI 291153Z 02003KT 8SM BKN100 07/06 A3020

Closest aviation forecast (TAF) to Baranof Warm Springs Float and Seaplane Base

Closest forecast is Sitka Rocky Gutierrez Airport, 17.4 nm (32.3 km) W. Retrieved 2020/09/29 12:30 UTC (16 minutes ago):

TAF PASI 291129Z 2912/3012 VRB04KT 6SM BR FEW002 SCT060 FM291800 04006KT P6SM VCSH BKN200 FM292000 17015KT P6SM -SHRA BKN030 OVC050 WS010/10035KT FM300200 15013KT P6SM -SHRA OVC050 FM300900 10010KT P6SM FEW050 WS020/11035KT